Time;durP1;ratioP1;P1;durP2;ratioP2;P2;SDS_P1;SDS_P2;PMS_P1;PMS_P2;Temp;Humidity;BMP_temperature;BMP_pressure;BME280_temperature;BME280_humidity;BME280_pressure;Samples;Min_cycle;Max_cycle;Signal;HPM_P1;HPM_P2
2023/07/24 00:01:27;;;;;;;4.43;2.95;;;22.10;93.70;;;;;;5074219;28;20028;-57
2023/07/24 00:04:13;;;;;;;4.35;3.10;;;22.20;93.70;;;;;;5073895;28;20040;-54
2023/07/24 00:07:00;;;;;;;6.82;2.78;;;22.10;93.80;;;;;;5073896;28;20112;-58
2023/07/24 00:09:46;;;;;;;2.63;2.40;;;22.00;94.00;;;;;;5073839;28;20035;-59
2023/07/24 00:12:32;;;;;;;3.75;2.78;;;22.00;94.20;;;;;;5074415;28;20036;-58
2023/07/24 00:15:18;;;;;;;3.20;2.70;;;22.00;94.30;;;;;;5074492;28;20073;-58
2023/07/24 00:18:04;;;;;;;4.28;2.70;;;22.10;94.30;;;;;;5073285;28;20028;-56
2023/07/24 00:20:50;;;;;;;5.25;3.40;;;22.10;94.30;;;;;;5073959;28;20036;-58
2023/07/24 00:23:36;;;;;;;3.58;2.63;;;22.00;94.40;;;;;;5073994;28;20028;-58
2023/07/24 00:26:22;;;;;;;2.70;2.50;;;22.10;94.80;;;;;;5052540;28;20041;-58
2023/07/24 00:29:08;;;;;;;3.30;2.80;;;22.10;94.30;;;;;;5038489;28;20037;-58
2023/07/24 00:31:54;;;;;;;3.17;2.58;;;22.10;94.50;;;;;;5069583;28;20103;-57
2023/07/24 00:34:40;;;;;;;4.80;2.72;;;22.00;94.50;;;;;;5073679;28;20024;-55
2023/07/24 00:37:26;;;;;;;4.18;2.78;;;22.00;94.60;;;;;;5086392;28;20028;-56
2023/07/24 00:40:12;;;;;;;3.50;2.90;;;22.00;94.60;;;;;;5086305;28;20111;-58
2023/07/24 00:42:58;;;;;;;4.32;2.95;;;21.90;94.80;;;;;;5073394;28;20447;-56
2023/07/24 00:45:46;;;;;;;3.00;2.55;;;21.90;94.80;;;;;;5073440;28;20036;-57
2023/07/24 00:48:32;;;;;;;4.00;2.80;;;21.90;94.80;;;;;;5072907;28;20029;-58
2023/07/24 00:51:18;;;;;;;3.10;2.78;;;21.90;94.90;;;;;;5074107;28;20025;-58
2023/07/24 00:54:07;;;;;;;3.85;2.60;;;21.80;95.00;;;;;;5073379;28;20103;-57
2023/07/24 00:56:53;;;;;;;4.28;2.72;;;21.80;95.10;;;;;;5073006;28;20552;-58
2023/07/24 00:59:41;;;;;;;3.25;2.72;;;21.90;95.10;;;;;;5072295;28;20040;-58
2023/07/24 01:02:28;;;;;;;3.50;2.88;;;21.80;95.00;;;;;;5058504;28;20047;-57
2023/07/24 01:05:17;;;;;;;4.47;2.67;;;21.80;95.20;;;;;;5073155;28;20501;-59
2023/07/24 01:08:03;;;;;;;3.13;2.75;;;21.80;95.30;;;;;;5052314;28;20037;-56
2023/07/24 01:10:49;;;;;;;3.53;2.50;;;21.70;95.40;;;;;;5052364;28;20037;-58
2023/07/24 01:13:42;;;;;;;3.85;2.83;;;21.70;95.30;;;;;;5052369;28;20570;-58
2023/07/24 01:16:37;;;;;;;3.58;3.00;;;21.70;95.40;;;;;;5051264;28;20495;-58
2023/07/24 01:19:38;;;;;;;2.90;2.42;;;21.70;95.40;;;;;;5052537;28;20029;-56
2023/07/24 01:22:27;;;;;;;3.58;2.80;;;21.70;95.40;;;;;;5052833;28;20040;-58
2023/07/24 01:25:35;;;;;;;3.53;2.90;;;21.70;95.30;;;;;;5051940;28;20032;-54
2023/07/24 01:28:21;;;;;;;4.43;2.85;;;21.80;95.30;;;;;;5052582;28;20474;-56
2023/07/24 01:31:07;;;;;;;4.15;2.72;;;21.80;95.20;;;;;;5064874;28;20555;-55
2023/07/24 01:33:53;;;;;;;3.63;2.80;;;21.80;95.20;;;;;;5084076;28;20036;-57
2023/07/24 01:36:39;;;;;;;3.72;2.92;;;21.70;95.40;;;;;;5085137;28;20396;-58
2023/07/24 01:39:25;;;;;;;5.13;3.10;;;21.70;95.40;;;;;;5072006;28;20056;-59
2023/07/24 01:42:12;;;;;;;3.10;2.80;;;21.60;95.40;;;;;;5051796;28;20029;-59
2023/07/24 01:44:58;;;;;;;4.60;3.10;;;21.60;95.50;;;;;;5051123;28;20053;-59
2023/07/24 01:47:44;;;;;;;5.53;2.92;;;21.50;95.50;;;;;;5053024;28;20473;-56
2023/07/24 01:50:30;;;;;;;3.40;3.00;;;21.50;95.80;;;;;;5051579;28;20507;-57
2023/07/24 01:53:16;;;;;;;6.00;3.40;;;21.50;95.60;;;;;;5065230;28;20031;-58
2023/07/24 01:56:02;;;;;;;3.83;3.00;;;21.50;95.60;;;;;;5071811;28;20032;-57
2023/07/24 01:58:48;;;;;;;4.32;3.08;;;21.50;95.50;;;;;;5071388;28;20028;-58
2023/07/24 02:01:34;;;;;;;5.25;3.08;;;21.40;95.70;;;;;;5072072;28;20039;-56
2023/07/24 02:04:22;;;;;;;3.92;3.35;;;21.50;95.50;;;;;;5071626;28;20090;-58
2023/07/24 02:07:07;;;;;;;3.97;3.30;;;21.40;95.60;;;;;;5071604;28;20419;-58
2023/07/24 02:09:53;;;;;;;4.75;4.25;;;21.40;95.70;;;;;;5056628;28;20028;-58
2023/07/24 02:12:39;;;;;;;5.47;3.20;;;21.50;95.80;;;;;;5071891;28;20028;-58
2023/07/24 02:15:25;;;;;;;4.00;3.60;;;21.50;95.80;;;;;;5071629;28;20027;-58
2023/07/24 02:18:11;;;;;;;5.28;3.25;;;21.60;95.60;;;;;;5071402;28;20029;-58
2023/07/24 02:20:57;;;;;;;4.25;3.22;;;21.50;95.40;;;;;;5071267;28;20062;-59
2023/07/24 02:23:43;;;;;;;4.85;3.45;;;21.50;95.50;;;;;;5071702;28;20039;-58
2023/07/24 02:26:29;;;;;;;4.85;3.10;;;21.60;95.50;;;;;;5083535;28;20082;-57
2023/07/24 02:29:15;;;;;;;4.30;3.40;;;21.50;95.40;;;;;;5071390;28;20404;-58
2023/07/24 02:32:02;;;;;;;4.20;3.80;;;21.50;95.50;;;;;;5070860;28;20068;-59
2023/07/24 02:34:50;;;;;;;4.20;3.80;;;21.40;95.60;;;;;;5071623;28;20135;-58
2023/07/24 02:37:35;;;;;;;4.75;3.67;;;21.40;95.90;;;;;;5070074;28;20021;-56
2023/07/24 02:40:21;;;;;;;4.60;3.38;;;21.40;95.70;;;;;;5071560;28;20059;-57
2023/07/24 02:43:07;;;;;;;3.72;3.20;;;21.40;95.80;;;;;;5071602;28;20029;-55
2023/07/24 02:45:53;;;;;;;5.57;3.38;;;21.40;95.70;;;;;;5071524;28;20385;-59
2023/07/24 02:48:39;;;;;;;4.40;3.20;;;21.50;95.40;;;;;;5071489;28;20031;-58
2023/07/24 02:51:25;;;;;;;3.75;3.28;;;21.40;95.50;;;;;;5071654;28;20025;-56
2023/07/24 02:54:11;;;;;;;5.32;3.58;;;21.40;95.40;;;;;;5071457;28;20025;-58
2023/07/24 02:56:57;;;;;;;6.07;3.28;;;21.30;95.70;;;;;;5072617;28;20401;-58
2023/07/24 02:59:43;;;;;;;7.15;3.58;;;21.30;95.80;;;;;;5070190;28;20041;-57
2023/07/24 03:02:29;;;;;;;5.55;3.60;;;21.30;95.90;;;;;;5052078;28;20025;-57
2023/07/24 03:05:15;;;;;;;3.67;3.20;;;21.20;95.90;;;;;;5040024;28;20029;-58
2023/07/24 03:08:01;;;;;;;4.70;3.53;;;21.20;96.10;;;;;;5070590;28;20025;-57
2023/07/24 03:10:47;;;;;;;4.43;3.47;;;21.30;96.00;;;;;;5071285;28;20032;-55
2023/07/24 03:13:33;;;;;;;4.32;3.35;;;21.20;96.00;;;;;;5071281;28;20021;-53
2023/07/24 03:16:20;;;;;;;5.03;3.70;;;21.30;96.00;;;;;;5071007;28;20033;-52
2023/07/24 03:19:06;;;;;;;6.82;4.07;;;21.20;96.00;;;;;;5071185;28;20029;-58
2023/07/24 03:21:52;;;;;;;4.30;3.70;;;21.20;96.10;;;;;;5082879;28;20025;-55
2023/07/24 03:24:38;;;;;;;5.32;3.60;;;21.10;96.30;;;;;;5070948;28;20036;-58
2023/07/24 03:27:24;;;;;;;8.20;3.65;;;21.10;96.30;;;;;;5055220;28;20151;-54
2023/07/24 03:30:10;;;;;;;5.32;4.63;;;21.20;95.80;;;;;;5070195;28;20036;-58
2023/07/24 03:32:57;;;;;;;4.10;3.40;;;21.10;95.80;;;;;;5073531;28;20055;-57
2023/07/24 03:35:43;;;;;;;5.28;3.92;;;21.10;95.80;;;;;;5073924;28;20079;-58
2023/07/24 03:38:29;;;;;;;5.72;4.05;;;21.10;95.80;;;;;;5074492;28;20024;-57
2023/07/24 03:41:15;;;;;;;4.93;3.70;;;21.10;95.80;;;;;;5073482;28;20029;-55
2023/07/24 03:44:00;;;;;;;5.45;4.32;;;21.10;95.80;;;;;;5072764;28;20040;-54
2023/07/24 03:46:46;;;;;;;5.03;3.92;;;21.10;96.00;;;;;;5073950;28;20055;-57
2023/07/24 03:49:33;;;;;;;5.03;3.90;;;21.10;96.10;;;;;;5074148;28;20071;-52
2023/07/24 03:52:19;;;;;;;4.00;3.47;;;21.10;96.20;;;;;;5054480;28;20397;-58
2023/07/24 03:55:05;;;;;;;7.15;3.95;;;21.10;96.00;;;;;;5056955;28;20033;-55
2023/07/24 03:57:51;;;;;;;4.70;3.67;;;21.10;96.10;;;;;;5073075;28;20025;-58
2023/07/24 04:00:37;;;;;;;4.13;3.72;;;21.10;96.30;;;;;;5059536;28;20025;-53
2023/07/24 04:03:23;;;;;;;4.75;3.50;;;21.00;96.40;;;;;;5073919;28;20400;-52
2023/07/24 04:06:09;;;;;;;5.15;3.80;;;21.10;96.40;;;;;;5073765;28;20033;-50
2023/07/24 04:08:55;;;;;;;4.82;3.65;;;21.10;96.50;;;;;;5073904;28;20382;-55
2023/07/24 04:11:42;;;;;;;4.15;3.70;;;21.10;96.50;;;;;;5074030;28;20055;-55
2023/07/24 04:14:28;;;;;;;4.80;4.13;;;21.10;96.50;;;;;;5074085;28;20489;-55
2023/07/24 04:17:15;;;;;;;5.70;4.03;;;21.10;96.50;;;;;;5073527;28;20025;-55
2023/07/24 04:20:01;;;;;;;5.45;3.92;;;21.00;96.40;;;;;;5072214;28;20028;-53
2023/07/24 04:22:47;;;;;;;6.03;4.20;;;21.00;96.50;;;;;;5074911;28;20056;-56
2023/07/24 04:25:33;;;;;;;7.55;4.18;;;21.00;96.70;;;;;;5073582;28;20539;-53
2023/07/24 04:28:19;;;;;;;5.28;4.00;;;20.90;96.80;;;;;;5072847;28;20037;-56
2023/07/24 04:31:05;;;;;;;5.65;4.00;;;21.00;96.40;;;;;;5073679;28;20043;-51
2023/07/24 04:33:51;;;;;;;4.95;4.45;;;21.00;96.70;;;;;;5073839;28;20024;-51
2023/07/24 04:36:36;;;;;;;4.60;4.05;;;21.00;96.50;;;;;;5084774;28;20103;-54
2023/07/24 04:39:22;;;;;;;6.05;4.55;;;21.10;96.60;;;;;;5058519;28;20116;-51
2023/07/24 04:42:08;;;;;;;6.90;4.70;;;21.10;96.30;;;;;;5058835;28;20058;-52
2023/07/24 04:44:54;;;;;;;7.55;4.50;;;21.10;96.10;;;;;;5073824;28;20025;-54
2023/07/24 04:47:40;;;;;;;6.22;4.55;;;21.20;95.80;;;;;;5073411;28;20047;-55
2023/07/24 04:50:26;;;;;;;6.65;4.63;;;21.00;96.10;;;;;;5071694;28;20029;-50
2023/07/24 04:53:12;;;;;;;5.07;4.35;;;21.10;95.80;;;;;;5035616;28;20044;-53
2023/07/24 04:55:58;;;;;;;6.63;4.63;;;21.10;95.80;;;;;;5063930;28;20028;-52
2023/07/24 04:58:44;;;;;;;5.85;4.63;;;21.00;95.80;;;;;;5053734;28;20076;-56
2023/07/24 05:01:30;;;;;;;7.90;4.45;;;21.10;96.10;;;;;;5052047;28;20025;-56
2023/07/24 05:04:16;;;;;;;5.13;4.60;;;21.10;95.90;;;;;;5062269;28;20039;-56
2023/07/24 05:07:02;;;;;;;6.70;4.68;;;21.30;95.90;;;;;;5064842;28;20028;-59
2023/07/24 05:09:48;;;;;;;6.68;4.68;;;21.20;95.70;;;;;;5072710;28;20036;-58
2023/07/24 05:12:34;;;;;;;7.45;4.68;;;21.20;95.40;;;;;;5072562;28;20598;-58
2023/07/24 05:15:20;;;;;;;5.80;4.35;;;21.20;95.50;;;;;;5070150;28;20451;-59
2023/07/24 05:18:05;;;;;;;10.32;5.13;;;21.20;95.60;;;;;;5058455;28;20036;-57
2023/07/24 05:20:51;;;;;;;6.90;4.35;;;21.20;95.70;;;;;;5072896;28;20035;-58
2023/07/24 05:23:37;;;;;;;6.45;4.68;;;21.20;95.70;;;;;;5072612;28;20021;-58
2023/07/24 05:26:23;;;;;;;7.03;4.88;;;21.40;95.20;;;;;;5049405;28;20113;-56
2023/07/24 05:29:09;;;;;;;6.32;4.75;;;21.30;95.40;;;;;;5061614;28;20111;-56
2023/07/24 05:31:55;;;;;;;6.03;4.63;;;21.40;95.40;;;;;;5059867;28;20035;-58
2023/07/24 05:34:41;;;;;;;8.32;5.15;;;21.50;95.40;;;;;;5072715;28;20033;-57
2023/07/24 05:37:27;;;;;;;5.97;4.30;;;21.50;95.20;;;;;;5064211;28;20032;-55
2023/07/24 05:40:13;;;;;;;4.80;4.22;;;21.70;95.30;;;;;;5057547;28;20467;-59
2023/07/24 05:42:59;;;;;;;11.15;4.90;;;21.80;95.00;;;;;;5072573;28;20035;-59
2023/07/24 05:45:45;;;;;;;7.93;4.60;;;21.90;94.80;;;;;;5073123;28;20053;-54
2023/07/24 05:48:34;;;;;;;6.82;4.40;;;22.00;94.40;;;;;;5071921;28;20043;-58
2023/07/24 05:51:20;;;;;;;7.80;5.05;;;22.00;94.30;;;;;;5071700;28;20031;-59
2023/07/24 05:54:09;;;;;;;5.05;4.32;;;22.00;94.10;;;;;;5055941;28;20028;-57
2023/07/24 05:56:55;;;;;;;8.68;4.90;;;22.10;93.70;;;;;;5071883;28;20036;-58
2023/07/24 05:59:41;;;;;;;5.65;4.70;;;22.10;93.60;;;;;;5071957;28;20067;-57
2023/07/24 06:02:27;;;;;;;6.57;5.43;;;22.20;93.40;;;;;;5071875;28;20033;-57
2023/07/24 06:05:13;;;;;;;5.55;4.82;;;22.40;93.20;;;;;;5072028;28;20428;-57
2023/07/24 06:07:59;;;;;;;8.18;5.32;;;22.50;92.80;;;;;;5071073;28;20062;-56
2023/07/24 06:10:47;;;;;;;6.13;4.97;;;22.50;92.70;;;;;;5071870;28;20086;-56
2023/07/24 06:13:33;;;;;;;7.65;4.93;;;22.60;92.70;;;;;;5071483;28;20412;-58
2023/07/24 06:16:19;;;;;;;9.73;5.00;;;22.60;92.90;;;;;;5071364;28;20052;-59
2023/07/24 06:19:05;;;;;;;6.10;5.22;;;22.70;92.80;;;;;;5071661;28;20035;-57
2023/07/24 06:21:51;;;;;;;5.93;4.85;;;22.80;92.70;;;;;;5071701;28;20528;-58
2023/07/24 06:24:37;;;;;;;5.88;4.40;;;23.00;92.50;;;;;;5071867;28;20497;-59
2023/07/24 06:27:23;;;;;;;5.47;4.88;;;23.20;92.30;;;;;;5070815;28;20102;-59
2023/07/24 06:30:09;;;;;;;5.35;4.70;;;23.20;91.90;;;;;;5084818;28;20558;-59
2023/07/24 06:32:55;;;;;;;7.15;4.78;;;23.20;92.20;;;;;;5070659;28;20031;-59
2023/07/24 06:35:45;;;;;;;7.57;4.80;;;23.40;92.00;;;;;;5071806;28;20370;-59
2023/07/24 06:38:30;;;;;;;9.00;5.85;;;23.50;91.70;;;;;;5070088;28;20024;-57
2023/07/24 06:41:17;;;;;;;5.55;4.65;;;23.60;91.40;;;;;;5071096;28;20032;-58
2023/07/24 06:44:03;;;;;;;6.38;4.80;;;23.70;91.30;;;;;;5055415;28;20036;-59
2023/07/24 06:46:49;;;;;;;6.18;4.70;;;23.60;91.00;;;;;;5071265;28;20425;-59
2023/07/24 06:49:35;;;;;;;8.80;5.63;;;23.80;91.10;;;;;;5052199;28;20383;-57
2023/07/24 06:52:21;;;;;;;5.55;4.25;;;23.90;90.90;;;;;;5037358;28;20025;-60
2023/07/24 06:55:07;;;;;;;10.45;4.93;;;23.80;90.70;;;;;;5050689;28;20108;-54
2023/07/24 06:57:53;;;;;;;4.70;4.18;;;23.60;91.00;;;;;;5049745;28;20036;-59
2023/07/24 07:00:39;;;;;;;7.57;4.82;;;23.50;91.20;;;;;;5066318;28;20077;-58
2023/07/24 07:03:25;;;;;;;5.20;4.30;;;23.60;91.30;;;;;;5070431;28;20029;-58
2023/07/24 07:06:12;;;;;;;5.95;4.75;;;23.50;91.70;;;;;;5072046;28;20119;-59
2023/07/24 07:08:58;;;;;;;7.68;4.85;;;23.60;90.90;;;;;;5073787;28;20093;-58
2023/07/24 07:11:44;;;;;;;8.43;5.13;;;23.60;90.80;;;;;;5075116;28;20382;-56
2023/07/24 07:14:30;;;;;;;7.18;5.10;;;23.60;91.00;;;;;;5059507;28;20060;-58
2023/07/24 07:17:16;;;;;;;7.40;4.85;;;23.70;90.80;;;;;;5074118;28;20159;-56
2023/07/24 07:20:03;;;;;;;7.55;5.22;;;23.80;90.60;;;;;;5073923;28;20449;-58
2023/07/24 07:22:49;;;;;;;6.82;5.47;;;23.80;90.10;;;;;;5074982;28;20504;-58
2023/07/24 07:25:35;;;;;;;6.35;5.07;;;23.80;90.00;;;;;;5072701;28;20036;-56
2023/07/24 07:28:21;;;;;;;7.47;5.90;;;23.80;89.50;;;;;;5074627;28;20051;-57
2023/07/24 07:31:07;;;;;;;7.82;5.70;;;23.70;89.50;;;;;;5075152;28;20035;-56
2023/07/24 07:33:53;;;;;;;6.65;5.28;;;23.60;89.60;;;;;;5081778;28;20017;-56
2023/07/24 07:36:39;;;;;;;7.18;5.85;;;23.70;89.90;;;;;;5073207;28;20524;-58
2023/07/24 07:39:25;;;;;;;7.55;5.43;;;23.80;89.50;;;;;;5075121;28;20029;-59
2023/07/24 07:42:11;;;;;;;7.25;5.45;;;23.80;89.60;;;;;;5075262;28;20033;-52
2023/07/24 07:44:57;;;;;;;7.20;5.45;;;23.90;89.70;;;;;;5060157;28;20493;-55
2023/07/24 07:47:43;;;;;;;5.68;5.10;;;24.00;89.70;;;;;;5074557;28;20040;-57
2023/07/24 07:50:29;;;;;;;9.15;5.53;;;24.10;89.20;;;;;;5073127;28;20037;-55
2023/07/24 07:53:15;;;;;;;8.00;5.70;;;24.20;88.90;;;;;;5040139;28;20537;-57
2023/07/24 07:56:01;;;;;;;7.78;5.75;;;24.30;88.20;;;;;;5050352;28;20443;-58
2023/07/24 07:58:47;;;;;;;8.57;6.00;;;24.30;87.80;;;;;;5072927;28;20032;-57
2023/07/24 08:01:33;;;;;;;8.40;6.10;;;24.20;88.00;;;;;;5072471;28;20485;-53
2023/07/24 08:04:19;;;;;;;9.27;6.00;;;24.30;87.30;;;;;;5072219;28;20082;-58
2023/07/24 08:07:05;;;;;;;5.95;5.10;;;24.30;87.90;;;;;;5069512;28;20032;-57
2023/07/24 08:09:51;;;;;;;7.10;5.93;;;24.30;87.60;;;;;;5062374;28;20489;-56
2023/07/24 08:12:37;;;;;;;6.70;5.90;;;24.40;87.50;;;;;;5065192;28;20037;-59
2023/07/24 08:15:23;;;;;;;8.13;5.40;;;24.40;86.70;;;;;;5072134;28;20593;-55
2023/07/24 08:18:09;;;;;;;8.55;5.90;;;24.30;86.90;;;;;;5069341;28;20059;-56
2023/07/24 08:20:55;;;;;;;6.50;5.78;;;24.40;87.40;;;;;;5054871;28;20040;-51
2023/07/24 08:23:41;;;;;;;6.90;5.75;;;24.50;87.10;;;;;;5080283;28;20040;-50
2023/07/24 08:26:27;;;;;;;9.68;6.40;;;24.60;87.20;;;;;;5092762;28;20031;-53
2023/07/24 08:29:13;;;;;;;7.47;5.78;;;24.70;86.70;;;;;;5076643;28;20032;-54
2023/07/24 08:31:59;;;;;;;7.97;6.10;;;24.70;86.20;;;;;;5072480;28;20103;-53
2023/07/24 08:34:45;;;;;;;6.93;5.80;;;24.70;85.80;;;;;;5072986;28;20033;-52
2023/07/24 08:37:31;;;;;;;7.93;5.97;;;24.70;86.20;;;;;;5076948;28;20085;-49
2023/07/24 08:40:17;;;;;;;7.70;6.63;;;24.70;85.00;;;;;;5093013;28;20024;-50
2023/07/24 08:43:04;;;;;;;7.63;5.60;;;24.60;86.00;;;;;;5074413;28;20032;-50
2023/07/24 08:45:50;;;;;;;8.45;5.78;;;24.80;86.10;;;;;;5072982;28;20514;-55
2023/07/24 08:48:38;;;;;;;8.95;6.60;;;24.80;85.50;;;;;;5072034;28;20082;-50
2023/07/24 08:51:24;;;;;;;9.95;6.60;;;24.80;85.40;;;;;;5072039;28;20033;-50
2023/07/24 08:54:12;;;;;;;10.57;6.65;;;24.80;84.80;;;;;;5064027;28;20449;-53
2023/07/24 08:56:58;;;;;;;8.35;6.35;;;24.90;85.70;;;;;;5073339;28;20044;-53
2023/07/24 08:59:47;;;;;;;7.00;6.13;;;24.80;85.60;;;;;;5064534;28;20111;-53
2023/07/24 09:02:36;;;;;;;10.35;5.85;;;24.90;85.00;;;;;;5072582;28;20096;-48
2023/07/24 09:05:22;;;;;;;8.60;5.82;;;25.00;85.10;;;;;;5073277;28;20040;-48
2023/07/24 09:08:08;;;;;;;7.57;6.40;;;25.10;84.00;;;;;;5057361;28;20369;-55
2023/07/24 09:10:54;;;;;;;9.57;6.22;;;25.40;84.70;;;;;;5073106;28;20034;-50
2023/07/24 09:13:43;;;;;;;7.88;6.28;;;25.60;83.20;;;;;;5053407;28;20037;-55
2023/07/24 09:16:30;;;;;;;8.40;6.07;;;25.70;83.50;;;;;;5064875;28;20393;-49
2023/07/24 09:19:18;;;;;;;10.20;6.78;;;26.00;82.60;;;;;;5065064;28;20527;-57
2023/07/24 09:22:14;;;;;;;7.63;6.57;;;26.20;82.00;;;;;;5065961;28;20508;-57
2023/07/24 09:25:03;;;;;;;7.22;5.95;;;26.30;82.70;;;;;;5066991;28;20439;-54
2023/07/24 09:27:51;;;;;;;9.60;6.00;;;26.50;81.40;;;;;;5059568;28;20052;-57
2023/07/24 09:30:38;;;;;;;8.65;5.97;;;26.40;80.10;;;;;;5050099;28;20391;-56
2023/07/24 09:33:39;;;;;;;7.47;6.70;;;26.20;80.70;;;;;;5066859;28;20062;-56
2023/07/24 09:36:25;;;;;;;8.40;6.63;;;26.30;80.70;;;;;;5068522;28;20040;-56
2023/07/24 09:39:11;;;;;;;8.82;6.68;;;26.40;80.60;;;;;;5071692;28;20504;-59
2023/07/24 09:42:05;;;;;;;8.82;6.18;;;26.60;79.90;;;;;;5059445;28;20511;-59
2023/07/24 09:44:51;;;;;;;8.57;6.90;;;26.40;79.90;;;;;;5078762;28;20031;-59
2023/07/24 09:47:39;;;;;;;9.40;6.25;;;26.50;80.20;;;;;;5070155;28;20024;-57
2023/07/24 09:50:26;;;;;;;8.60;6.47;;;26.60;79.90;;;;;;5082350;28;20068;-58
2023/07/24 09:53:33;;;;;;;11.10;7.30;;;26.50;79.60;;;;;;5074447;28;20082;-57
2023/07/24 09:56:20;;;;;;;9.85;7.38;;;26.80;79.50;;;;;;5072459;28;20100;-56
2023/07/24 09:59:06;;;;;;;11.13;6.95;;;27.00;79.30;;;;;;5072776;28;20032;-51
2023/07/24 10:01:53;;;;;;;7.88;6.70;;;26.80;78.70;;;;;;5066327;28;20067;-54
2023/07/24 10:04:40;;;;;;;9.30;6.80;;;26.70;79.20;;;;;;5070619;28;20036;-51
2023/07/24 10:07:26;;;;;;;11.00;7.40;;;26.50;79.10;;;;;;5068913;28;20032;-52
2023/07/24 10:10:13;;;;;;;12.73;7.28;;;26.50;80.20;;;;;;5088179;28;20115;-53
2023/07/24 10:12:59;;;;;;;7.30;6.53;;;26.60;80.30;;;;;;5069219;28;20028;-55
2023/07/24 10:15:47;;;;;;;10.48;6.47;;;26.80;79.50;;;;;;5083926;28;20082;-55
2023/07/24 10:18:35;;;;;;;9.65;7.18;;;26.90;79.60;;;;;;5055823;28;20395;-51
2023/07/24 10:21:27;;;;;;;9.40;7.30;;;26.80;79.10;;;;;;5072733;28;20501;-54
2023/07/24 10:24:13;;;;;;;8.85;7.50;;;26.90;79.30;;;;;;5085032;28;20063;-55
2023/07/24 10:27:00;;;;;;;9.80;7.30;;;26.70;78.90;;;;;;5072448;28;20126;-53
2023/07/24 10:29:48;;;;;;;10.18;7.72;;;26.70;79.00;;;;;;5044906;28;20028;-53
2023/07/24 10:32:46;;;;;;;9.52;7.55;;;26.70;79.10;;;;;;5065691;28;20120;-48
2023/07/24 10:35:43;;;;;;;10.13;7.78;;;26.80;79.00;;;;;;5074422;28;20016;-54
2023/07/24 10:38:37;;;;;;;10.63;7.47;;;26.90;79.20;;;;;;5057523;28;20058;-56
2023/07/24 10:41:34;;;;;;;10.57;8.10;;;26.90;79.10;;;;;;5070853;28;20679;-56
2023/07/24 10:44:31;;;;;;;11.77;8.30;;;26.80;78.60;;;;;;5069672;28;20036;-55
2023/07/24 10:47:19;;;;;;;10.52;8.07;;;26.70;79.00;;;;;;5069217;28;20074;-54
2023/07/24 10:50:05;;;;;;;9.75;7.85;;;26.90;78.60;;;;;;5069445;28;20029;-56
2023/07/24 10:52:51;;;;;;;8.82;7.25;;;27.00;78.40;;;;;;5070990;28;20035;-57
2023/07/24 10:55:41;;;;;;;10.85;8.40;;;27.00;78.70;;;;;;5072579;28;20029;-55
2023/07/24 10:58:27;;;;;;;10.05;7.47;;;27.10;78.00;;;;;;5072556;28;20017;-56
2023/07/24 11:01:14;;;;;;;9.23;7.78;;;27.10;78.80;;;;;;5071136;28;20055;-54
2023/07/24 11:04:01;;;;;;;8.65;7.53;;;27.50;77.90;;;;;;5069441;28;20033;-54
2023/07/24 11:06:53;;;;;;;10.52;9.05;;;27.60;76.50;;;;;;5069673;28;20493;-59
2023/07/24 11:09:40;;;;;;;11.30;8.07;;;27.50;77.40;;;;;;5062501;28;20131;-58
2023/07/24 11:12:30;;;;;;;10.77;8.48;;;27.70;77.20;;;;;;5069630;28;20062;-58
2023/07/24 11:15:25;;;;;;;10.45;7.97;;;27.60;76.60;;;;;;5052318;28;20029;-56
2023/07/24 11:18:12;;;;;;;11.48;8.00;;;27.60;77.00;;;;;;5070467;28;20028;-52
2023/07/24 11:20:59;;;;;;;8.85;7.57;;;27.80;75.70;;;;;;5066137;28;20032;-54
2023/07/24 11:23:51;;;;;;;9.75;8.23;;;28.00;75.50;;;;;;5070264;28;20024;-54
2023/07/24 11:26:37;;;;;;;8.95;8.05;;;28.10;75.30;;;;;;5066799;28;20461;-56
2023/07/24 11:29:23;;;;;;;9.70;7.82;;;28.30;75.40;;;;;;5068226;28;20497;-57
2023/07/24 11:32:09;;;;;;;11.85;7.60;;;28.30;75.00;;;;;;5068715;28;20082;-56
2023/07/24 11:34:56;;;;;;;8.32;7.45;;;28.10;74.70;;;;;;5069154;28;20036;-57
2023/07/24 11:37:42;;;;;;;12.07;8.00;;;28.10;75.10;;;;;;5068050;28;20389;-56
2023/07/24 11:40:32;;;;;;;10.27;7.85;;;28.20;74.60;;;;;;5053076;28;20029;-56
2023/07/24 11:43:20;;;;;;;10.05;8.25;;;28.30;74.80;;;;;;5058138;28;20508;-57
2023/07/24 11:46:06;;;;;;;9.02;7.68;;;28.30;75.40;;;;;;5072597;28;20032;-54
2023/07/24 11:48:55;;;;;;;11.57;7.65;;;28.10;75.20;;;;;;5066366;28;20523;-58
2023/07/24 11:51:41;;;;;;;9.98;7.55;;;28.00;74.70;;;;;;5070257;28;20056;-55
2023/07/24 11:54:27;;;;;;;8.30;7.32;;;28.00;74.80;;;;;;5066749;28;20032;-58
2023/07/24 11:57:16;;;;;;;11.02;7.63;;;27.70;75.60;;;;;;5074805;28;20027;-52
2023/07/24 12:00:05;;;;;;;10.18;8.13;;;27.70;76.30;;;;;;5073742;28;20107;-57
2023/07/24 12:02:58;;;;;;;11.27;8.55;;;27.60;76.10;;;;;;5074206;28;20024;-56
2023/07/24 12:05:47;;;;;;;12.23;7.90;;;27.60;76.50;;;;;;5072367;28;20515;-57
2023/07/24 12:08:35;;;;;;;11.50;8.38;;;27.70;76.10;;;;;;5085780;28;20492;-57
2023/07/24 12:11:22;;;;;;;14.35;8.90;;;27.70;76.00;;;;;;5087827;28;20043;-55
2023/07/24 12:14:08;;;;;;;8.85;7.95;;;27.60;76.40;;;;;;5045427;28;20073;-57
2023/07/24 12:17:06;;;;;;;8.80;7.78;;;27.40;75.80;;;;;;5082858;28;20035;-54
2023/07/24 12:19:54;;;;;;;8.90;7.80;;;27.40;75.60;;;;;;5071738;28;20074;-56
2023/07/24 12:22:41;;;;;;;11.00;8.07;;;27.20;76.20;;;;;;5058601;28;20121;-58
2023/07/24 12:25:27;;;;;;;9.43;7.95;;;27.20;76.40;;;;;;5073780;28;20041;-56
2023/07/24 12:28:13;;;;;;;10.98;8.70;;;27.10;76.50;;;;;;5073001;28;20492;-57
2023/07/24 12:30:58;;;;;;;11.98;9.15;;;27.00;76.80;;;;;;5055138;28;20128;-56
2023/07/24 12:33:44;;;;;;;13.95;9.43;;;27.00;77.10;;;;;;5075215;28;20109;-55
2023/07/24 12:36:30;;;;;;;17.50;9.10;;;26.90;77.50;;;;;;5062984;28;20025;-56
2023/07/24 12:39:20;;;;;;;10.45;9.10;;;26.80;77.90;;;;;;5058995;28;20040;-58
2023/07/24 12:42:06;;;;;;;13.02;9.07;;;26.90;77.50;;;;;;5074545;28;20115;-54
2023/07/24 12:44:52;;;;;;;9.70;8.70;;;27.00;77.10;;;;;;5057188;28;20039;-58
2023/07/24 12:47:38;;;;;;;10.82;8.90;;;27.00;76.90;;;;;;5070591;28;20063;-55
2023/07/24 12:50:24;;;;;;;11.48;8.98;;;26.90;77.40;;;;;;5070352;28;20480;-56
2023/07/24 12:53:10;;;;;;;10.88;8.43;;;27.10;76.30;;;;;;5070721;28;20108;-58
2023/07/24 12:55:56;;;;;;;10.73;8.55;;;27.00;76.50;;;;;;5072588;28;20392;-59
2023/07/24 12:58:44;;;;;;;14.63;8.43;;;27.10;76.70;;;;;;5072286;28;20515;-59
2023/07/24 13:01:32;;;;;;;10.07;8.23;;;27.20;76.50;;;;;;5069373;28;20050;-59
2023/07/24 13:04:19;;;;;;;10.60;8.07;;;27.30;76.20;;;;;;5072782;28;20059;-58
2023/07/24 13:07:05;;;;;;;10.18;7.47;;;27.50;76.10;;;;;;5055851;28;20028;-60
2023/07/24 13:09:51;;;;;;;9.13;7.80;;;27.50;75.80;;;;;;5071320;28;20522;-59
2023/07/24 13:12:37;;;;;;;10.13;8.50;;;27.50;76.50;;;;;;5057539;28;20083;-61
2023/07/24 13:15:23;;;;;;;12.02;8.38;;;27.50;75.70;;;;;;5072129;28;20044;-58
2023/07/24 13:18:13;;;;;;;10.32;8.35;;;27.50;76.10;;;;;;5057522;28;20047;-59
2023/07/24 13:20:59;;;;;;;9.30;7.90;;;27.50;76.00;;;;;;5071008;28;20030;-60
2023/07/24 13:23:45;;;;;;;9.90;8.20;;;27.50;76.00;;;;;;5070365;28;20043;-58
2023/07/24 13:26:31;;;;;;;12.27;8.38;;;27.50;76.20;;;;;;5065177;28;20504;-59
2023/07/24 13:29:23;;;;;;;14.50;7.72;;;27.60;76.30;;;;;;5077149;28;20449;-60
2023/07/24 13:32:12;;;;;;;11.02;8.93;;;27.60;76.70;;;;;;5062970;28;20028;-60
2023/07/24 13:34:59;;;;;;;16.35;9.93;;;27.50;76.50;;;;;;5057446;28;20516;-59
2023/07/24 13:37:45;;;;;;;12.18;9.15;;;27.40;76.50;;;;;;5073714;28;20523;-59
2023/07/24 13:40:31;;;;;;;11.52;9.48;;;27.40;77.50;;;;;;5081856;28;20025;-59
2023/07/24 13:43:18;;;;;;;13.32;10.45;;;27.60;77.90;;;;;;5092096;28;20031;-57
2023/07/24 13:46:04;;;;;;;20.30;10.23;;;27.90;78.20;;;;;;5073482;28;20501;-59
2023/07/24 13:48:50;;;;;;;18.80;9.10;;;28.00;78.40;;;;;;5048183;28;20051;-58
2023/07/24 13:51:36;;;;;;;13.93;9.95;;;28.20;78.50;;;;;;5059619;28;20048;-59
2023/07/24 13:54:22;;;;;;;12.48;9.80;;;28.30;77.50;;;;;;5073897;28;20095;-58
2023/07/24 13:57:08;;;;;;;12.90;9.55;;;28.30;76.60;;;;;;5069547;28;20041;-57
2023/07/24 13:59:54;;;;;;;12.50;10.15;;;28.20;76.70;;;;;;5071700;28;20039;-58
2023/07/24 14:02:40;;;;;;;12.25;9.20;;;28.10;77.10;;;;;;5076127;28;20036;-57
2023/07/24 14:05:26;;;;;;;11.48;8.35;;;28.00;77.00;;;;;;5069419;28;20071;-57
2023/07/24 14:08:12;;;;;;;8.63;7.57;;;27.80;77.10;;;;;;5041147;28;20114;-55
2023/07/24 14:10:58;;;;;;;10.52;7.35;;;27.70;77.30;;;;;;5071808;28;20032;-57
2023/07/24 14:13:46;;;;;;;11.07;8.10;;;27.80;77.30;;;;;;5081840;28;20093;-55
2023/07/24 14:16:31;;;;;;;12.55;8.52;;;27.90;76.70;;;;;;5070947;28;20021;-58
2023/07/24 14:19:18;;;;;;;11.70;8.38;;;28.10;76.90;;;;;;5063064;28;20059;-58
2023/07/24 14:22:04;;;;;;;11.88;8.20;;;28.20;76.00;;;;;;5068179;28;20032;-58
2023/07/24 14:24:50;;;;;;;9.88;8.40;;;28.10;76.00;;;;;;5070994;28;20024;-59
2023/07/24 14:27:36;;;;;;;11.82;8.57;;;28.20;76.10;;;;;;5057316;28;20023;-59